Time;durP1;ratioP1;P1;durP2;ratioP2;P2;SDS_P1;SDS_P2;PMS_P1;PMS_P2;Temp;Humidity;BMP_temperature;BMP_pressure;BME280_temperature;BME280_humidity;BME280_pressure;Samples;Min_cycle;Max_cycle;Signal;HPM_P1;HPM_P2
2022/03/29 00:01:14;;;;;;;97.27;89.53;;;;;;;11.44;100.00;101578.59;1939814;73;32974;-75
2022/03/29 00:06:59;;;;;;;95.17;87.53;;;;;;;11.30;100.00;101578.80;1929155;73;33002;-75
2022/03/29 00:12:43;;;;;;;100.73;92.97;;;;;;;11.40;100.00;101569.12;1940526;73;33586;-79
2022/03/29 00:18:28;;;;;;;101.33;93.23;;;;;;;11.33;100.00;101574.11;1934386;73;33004;-77
2022/03/29 00:24:12;;;;;;;97.90;90.30;;;;;;;11.29;100.00;101568.81;1922717;73;32987;-78
2022/03/29 00:29:57;;;;;;;98.97;91.27;;;;;;;11.31;100.00;101561.02;1929722;73;33015;-77
2022/03/29 00:35:41;;;;;;;99.80;92.20;;;;;;;11.21;100.00;101563.20;1923869;73;32989;-76
2022/03/29 00:41:25;;;;;;;96.73;89.23;;;;;;;11.13;100.00;101583.19;1923233;73;33119;-78
2022/03/29 00:47:10;;;;;;;97.57;90.07;;;;;;;11.37;100.00;101570.52;1928847;73;33555;-82
2022/03/29 00:52:54;;;;;;;100.87;92.60;;;;;;;11.14;100.00;101565.95;1928645;73;33059;-75
2022/03/29 00:58:38;;;;;;;99.57;92.00;;;;;;;11.13;100.00;101562.33;1939387;73;33007;-78
2022/03/29 01:04:25;;;;;;;98.43;90.57;;;;;;;11.17;100.00;101540.38;1929208;73;32941;-78
2022/03/29 01:10:11;;;;;;;98.20;90.73;;;;;;;11.03;100.00;101537.29;1934393;73;33069;-84
2022/03/29 01:17:38;;;;;;;96.47;89.20;;;;;;;10.86;100.00;101531.09;1928275;73;33007;-80
2022/03/29 01:21:43;;;;;;;98.63;91.03;;;;;;;10.70;100.00;101541.27;1939338;73;33033;-76
2022/03/29 01:27:32;;;;;;;102.20;94.30;;;;;;;10.56;100.00;101538.70;1939550;73;33221;-79
2022/03/29 01:33:17;;;;;;;105.50;96.73;;;;;;;10.66;100.00;101537.91;1929317;73;33161;-77
2022/03/29 01:39:03;;;;;;;105.67;97.00;;;;;;;10.70;100.00;101516.27;1939449;74;33547;-75
2022/03/29 01:44:48;;;;;;;109.57;100.50;;;;;;;10.67;100.00;101522.37;1928266;73;32975;-77
2022/03/29 01:50:36;;;;;;;105.13;96.57;;;;;;;10.67;100.00;101520.14;1940094;73;33105;-77
2022/03/29 01:56:20;;;;;;;108.87;100.07;;;;;;;10.60;100.00;101507.05;1911704;73;33012;-78
2022/03/29 02:02:05;;;;;;;103.20;94.77;;;;;;;10.47;100.00;101506.98;1923774;74;32924;-79
2022/03/29 02:07:50;;;;;;;105.43;97.23;;;;;;;10.41;100.00;101495.00;1934721;73;33440;-76
2022/03/29 02:13:34;;;;;;;102.43;94.50;;;;;;;10.25;100.00;101502.11;1939396;73;32967;-79
2022/03/29 02:19:20;;;;;;;104.33;96.17;;;;;;;10.24;100.00;101483.77;1933954;74;32923;-78
2022/03/29 02:25:06;;;;;;;104.13;95.83;;;;;;;10.24;100.00;101478.22;1929053;73;33179;-78
2022/03/29 02:30:51;;;;;;;106.40;98.13;;;;;;;10.19;100.00;101465.69;1917793;73;32899;-76
2022/03/29 02:36:36;;;;;;;102.80;94.57;;;;;;;10.21;100.00;101452.39;1934794;73;33192;-78
2022/03/29 02:42:20;;;;;;;103.87;95.13;;;;;;;10.17;100.00;101463.20;1934282;73;33176;-78
2022/03/29 02:48:05;;;;;;;106.83;98.07;;;;;;;10.24;100.00;101476.83;1940265;73;33692;-78
2022/03/29 02:53:49;;;;;;;105.00;96.27;;;;;;;10.31;100.00;101455.23;1939943;73;32992;-76
2022/03/29 02:59:33;;;;;;;108.47;98.87;;;;;;;10.25;100.00;101447.42;1939436;73;33106;-79
2022/03/29 03:05:20;;;;;;;108.90;99.23;;;;;;;10.28;100.00;101434.92;1939847;73;33476;-79
2022/03/29 03:11:04;;;;;;;111.27;101.10;;;;;;;10.31;100.00;101421.92;1938763;73;32997;-75
2022/03/29 03:16:49;;;;;;;109.83;99.63;;;;;;;10.31;100.00;101411.62;1934122;74;32992;-79
2022/03/29 03:22:35;;;;;;;110.10;99.77;;;;;;;10.28;100.00;101423.27;1928745;73;33180;-77
2022/03/29 03:28:20;;;;;;;109.43;99.00;;;;;;;10.15;100.00;101425.13;1934374;73;32998;-80
2022/03/29 03:34:05;;;;;;;112.80;102.30;;;;;;;10.23;100.00;101426.02;1923380;73;32990;-83
2022/03/29 03:39:50;;;;;;;114.50;103.97;;;;;;;10.24;100.00;101422.14;1911450;73;32960;-75
2022/03/29 03:45:35;;;;;;;114.80;104.47;;;;;;;10.15;100.00;101420.09;1896771;73;39532;-75
2022/03/29 03:51:20;;;;;;;112.97;102.60;;;;;;;10.11;100.00;101405.09;1916892;73;32973;-75
2022/03/29 03:57:05;;;;;;;113.53;102.87;;;;;;;10.06;100.00;101412.83;1913285;73;33671;-77
2022/03/29 04:02:50;;;;;;;111.67;101.37;;;;;;;10.03;100.00;101387.84;1940649;73;33131;-78
2022/03/29 04:08:34;;;;;;;107.83;98.00;;;;;;;10.10;100.00;101392.34;1934360;73;33530;-76
2022/03/29 04:14:18;;;;;;;110.87;100.67;;;;;;;10.03;100.00;101376.75;1933828;73;33076;-80
2022/03/29 04:20:03;;;;;;;110.07;99.17;;;;;;;10.06;100.00;101360.94;1928949;73;33055;-78
2022/03/29 04:25:47;;;;;;;113.97;102.97;;;;;;;10.16;100.00;101366.30;1929575;73;33482;-79
2022/03/29 04:31:35;;;;;;;112.87;102.30;;;;;;;10.08;100.00;101350.96;1934358;73;33079;-78
2022/03/29 04:37:20;;;;;;;110.60;99.43;;;;;;;10.13;100.00;101353.77;1929135;74;33188;-76
2022/03/29 04:43:04;;;;;;;107.73;96.80;;;;;;;10.15;100.00;101345.15;1938920;74;33098;-79
2022/03/29 04:48:52;;;;;;;113.20;101.73;;;;;;;10.06;100.00;101341.50;1940575;73;32996;-82
2022/03/29 04:54:35;;;;;;;107.13;97.00;;;;;;;10.07;100.00;101331.23;1941122;73;33120;-79
2022/03/29 05:00:21;;;;;;;107.60;97.13;;;;;;;10.04;100.00;101323.46;1939850;73;33112;-78
2022/03/29 05:06:06;;;;;;;102.53;92.90;;;;;;;9.91;100.00;101317.85;1928797;73;32926;-79
2022/03/29 05:11:50;;;;;;;106.97;96.53;;;;;;;9.93;100.00;101310.08;1928810;74;33111;-78
2022/03/29 05:17:35;;;;;;;106.97;96.77;;;;;;;9.93;100.00;101312.01;1934831;74;32927;-78
2022/03/29 05:23:22;;;;;;;107.03;97.17;;;;;;;9.87;100.00;101302.01;1928831;73;32975;-79
2022/03/29 05:29:07;;;;;;;101.03;91.50;;;;;;;9.83;100.00;101285.07;1924097;73;32933;-81
2022/03/29 05:34:51;;;;;;;100.33;90.23;;;;;;;9.89;100.00;101292.30;1939430;73;33478;-75
2022/03/29 05:40:36;;;;;;;102.43;91.97;;;;;;;9.89;100.00;101292.84;1939659;73;33007;-77
2022/03/29 05:52:28;;;;;;;104.10;94.13;;;;;;;9.85;100.00;101295.88;1928976;74;33446;-77
2022/03/29 05:58:11;;;;;;;100.70;91.17;;;;;;;9.30;100.00;101225.67;1889497;72;33590;-76
2022/03/29 06:03:55;;;;;;;103.37;93.27;;;;;;;9.79;100.00;101305.30;1939984;74;33193;-77
2022/03/29 06:09:39;;;;;;;107.93;97.63;;;;;;;9.74;100.00;101288.07;1917408;73;33375;-74
2022/03/29 06:15:24;;;;;;;106.00;95.97;;;;;;;9.83;100.00;101290.62;1940194;73;33033;-76
2022/03/29 06:21:09;;;;;;;100.70;91.00;;;;;;;9.72;100.00;101283.88;1928590;73;32976;-76
2022/03/29 06:26:53;;;;;;;104.23;94.50;;;;;;;9.77;100.00;101286.14;1934940;73;33400;-76
2022/03/29 06:32:46;;;;;;;108.00;98.07;;;;;;;9.70;100.00;101276.39;1928864;73;33005;-76
2022/03/29 06:38:32;;;;;;;100.77;91.60;;;;;;;9.59;100.00;101279.64;1917282;73;33041;-75
2022/03/29 06:44:17;;;;;;;101.00;92.10;;;;;;;9.51;100.00;101279.61;1934731;73;33110;-78
2022/03/29 06:50:03;;;;;;;102.37;93.20;;;;;;;9.49;100.00;101290.15;1934381;73;33085;-75
2022/03/29 06:55:52;;;;;;;99.10;90.57;;;;;;;9.52;100.00;101291.53;1913497;73;33032;-74
2022/03/29 07:01:37;;;;;;;98.23;89.03;;;;;;;9.51;100.00;101300.41;1934740;73;33002;-77
2022/03/29 07:07:21;;;;;;;98.37;89.40;;;;;;;9.52;100.00;101300.69;1939336;73;32983;-75
2022/03/29 07:13:06;;;;;;;97.30;88.40;;;;;;;9.50;100.00;101295.11;1934300;74;32995;-78
2022/03/29 07:18:54;;;;;;;100.00;90.57;;;;;;;9.49;100.00;101305.94;1923007;73;33529;-75
2022/03/29 07:24:37;;;;;;;95.77;86.60;;;;;;;9.51;100.00;101309.27;1939887;74;33532;-73
2022/03/29 07:30:22;;;;;;;94.43;85.47;;;;;;;9.54;100.00;101301.83;1923287;73;33431;-79
2022/03/29 07:36:07;;;;;;;96.47;87.17;;;;;;;9.69;100.00;101292.74;1934436;73;32982;-76
2022/03/29 07:41:54;;;;;;;97.13;87.90;;;;;;;9.74;100.00;101293.62;1917040;73;33525;-76
2022/03/29 07:47:39;;;;;;;96.83;87.63;;;;;;;9.80;100.00;101298.08;1939430;73;33042;-77
2022/03/29 07:53:25;;;;;;;92.40;83.87;;;;;;;10.04;100.00;101297.09;1917663;74;32930;-83
2022/03/29 07:59:10;;;;;;;93.03;84.20;;;;;;;10.22;100.00;101292.49;1940085;73;33075;-79
2022/03/29 08:04:54;;;;;;;96.67;87.17;;;;;;;10.33;100.00;101280.85;1939468;73;33043;-72
2022/03/29 08:10:38;;;;;;;92.90;84.50;;;;;;;10.58;100.00;101278.13;1933898;73;33084;-73
2022/03/29 08:16:23;;;;;;;92.67;84.13;;;;;;;10.70;100.00;101269.53;1911682;73;32926;-75
2022/03/29 08:22:07;;;;;;;95.73;87.30;;;;;;;10.69;100.00;101275.67;1922579;73;33092;-75
2022/03/29 08:27:54;;;;;;;95.40;87.17;;;;;;;10.89;100.00;101262.34;1939909;73;33034;-74
2022/03/29 08:33:38;;;;;;;93.17;84.83;;;;;;;10.97;100.00;101267.34;1929394;73;33013;-74
2022/03/29 08:39:23;;;;;;;90.47;82.53;;;;;;;10.85;100.00;101259.28;1929171;73;32973;-79
2022/03/29 08:45:13;;;;;;;89.60;82.00;;;;;;;10.88;100.00;101260.11;1917790;73;33051;-78
2022/03/29 08:51:00;;;;;;;90.83;82.90;;;;;;;10.88;100.00;101260.11;1939969;73;33024;-75
2022/03/29 08:56:44;;;;;;;87.70;80.23;;;;;;;10.91;100.00;101259.55;1914664;73;33054;-79
2022/03/29 09:02:34;;;;;;;89.30;82.03;;;;;;;10.89;100.00;101254.00;1939939;73;33049;-78
2022/03/29 09:08:26;;;;;;;84.57;77.67;;;;;;;11.10;100.00;101250.66;1940535;73;33048;-74
2022/03/29 09:14:11;;;;;;;83.93;76.87;;;;;;;11.33;100.00;101253.70;1939680;73;33251;-73
2022/03/29 09:19:57;;;;;;;81.17;74.83;;;;;;;11.38;100.00;101252.87;1932793;73;33025;-74
2022/03/29 09:25:52;;;;;;;81.63;74.80;;;;;;;11.41;100.00;101247.57;1940206;73;32998;-81
2022/03/29 09:31:37;;;;;;;84.47;77.37;;;;;;;11.58;100.00;101240.84;1935614;73;33129;-75
2022/03/29 09:37:36;;;;;;;79.00;72.80;;;;;;;11.56;100.00;101232.77;1939993;73;33043;-78
2022/03/29 09:43:26;;;;;;;80.83;74.37;;;;;;;11.70;100.00;101232.46;1929145;73;33027;-74
2022/03/29 09:49:12;;;;;;;80.00;73.43;;;;;;;12.14;100.00;101231.20;1934473;73;33089;-73
2022/03/29 09:55:14;;;;;;;77.23;71.13;;;;;;;12.52;100.00;101226.79;1923317;73;32994;-77
2022/03/29 10:01:01;;;;;;;75.20;69.70;;;;;;;12.71;100.00;101218.55;1923120;73;32993;-78
2022/03/29 10:06:49;;;;;;;79.03;73.33;;;;;;;12.76;100.00;101223.53;1939951;73;33065;-77
2022/03/29 10:12:36;;;;;;;70.77;65.60;;;;;;;12.79;100.00;101224.34;1939028;74;33057;-79
2022/03/29 10:18:23;;;;;;;74.90;69.30;;;;;;;12.81;100.00;101215.69;1923136;73;33013;-76
2022/03/29 10:24:11;;;;;;;65.47;60.67;;;;;;;13.05;100.00;101219.38;1917980;73;32999;-77
2022/03/29 10:29:56;;;;;;;66.17;61.47;;;;;;;12.83;100.00;101214.86;1922684;73;32938;-73
2022/03/29 10:36:05;;;;;;;66.97;62.03;;;;;;;12.97;100.00;101208.02;1939297;74;33071;-74
2022/03/29 10:42:37;;;;;;;65.60;60.80;;;;;;;12.81;100.00;101205.94;1939620;73;33066;-78
2022/03/29 10:48:31;;;;;;;67.87;63.07;;;;;;;12.93;100.00;101202.20;1939414;73;33079;-81
2022/03/29 10:54:36;;;;;;;69.27;64.17;;;;;;;12.43;100.00;101214.59;1929476;73;33520;-78
2022/03/29 11:00:22;;;;;;;68.97;63.73;;;;;;;12.86;100.00;101205.06;1917112;73;33137;-80
2022/03/29 11:06:23;;;;;;;67.03;62.13;;;;;;;13.05;100.00;101194.28;1939532;73;33100;-78
2022/03/29 11:16:03;;;;;;;62.77;58.27;;;;;;;13.59;100.00;101181.47;1939536;73;33438;-73
2022/03/29 11:22:26;;;;;;;58.03;53.87;;;;;;;13.86;100.00;101174.44;1941169;74;33074;-74
2022/03/29 11:28:12;;;;;;;57.50;53.57;;;;;;;13.92;100.00;101173.23;1934050;73;32913;-79
2022/03/29 11:33:58;;;;;;;58.73;54.67;;;;;;;13.84;100.00;101176.13;1934747;74;32998;-77
2022/03/29 11:39:45;;;;;;;57.07;53.07;;;;;;;13.66;100.00;101176.34;1911753;73;33541;-73
2022/03/29 11:45:31;;;;;;;56.67;52.87;;;;;;;13.48;100.00;101161.77;1928339;74;33155;-73
2022/03/29 11:51:17;;;;;;;57.60;53.57;;;;;;;13.62;100.00;101163.28;1934294;73;33040;-74
2022/03/29 11:57:24;;;;;;;58.03;54.17;;;;;;;13.49;100.00;101162.60;2051841;69;32778;-74
2022/03/29 12:03:12;;;;;;;54.50;51.07;;;;;;;13.58;100.00;101155.23;1934663;73;33263;-74
2022/03/29 12:09:00;;;;;;;55.27;51.77;;;;;;;13.68;100.00;101154.56;1922629;73;33074;-75
2022/03/29 12:14:47;;;;;;;56.70;52.90;;;;;;;13.76;100.00;101148.87;1917597;73;33007;-79
2022/03/29 12:20:38;;;;;;;53.60;49.97;;;;;;;13.77;100.00;101139.94;1922978;74;33552;-71
2022/03/29 12:26:33;;;;;;;55.30;51.67;;;;;;;13.94;100.00;101134.67;1917346;73;32992;-78
2022/03/29 12:32:19;;;;;;;55.37;51.67;;;;;;;14.20;100.00;101128.15;1939610;74;33095;-72
2022/03/29 12:38:13;;;;;;;55.60;51.93;;;;;;;14.29;100.00;101115.16;1940889;73;33101;-77
2022/03/29 12:44:10;;;;;;;54.53;50.87;;;;;;;14.06;100.00;101110.75;1923487;74;32927;-79
2022/03/29 12:49:55;;;;;;;53.03;49.50;;;;;;;14.06;100.00;101102.94;1940129;74;33115;-72
2022/03/29 12:55:42;;;;;;;54.87;51.03;;;;;;;14.01;100.00;101104.39;1929707;73;33037;-72
2022/03/29 13:01:30;;;;;;;59.37;54.97;;;;;;;13.74;100.00;101095.28;1923649;73;32951;-74
2022/03/29 13:07:39;;;;;;;55.00;51.10;;;;;;;14.13;100.00;101088.00;1939753;73;32968;-77
2022/03/29 13:13:29;;;;;;;61.20;56.63;;;;;;;13.69;100.00;101083.62;1939924;74;33112;-76
2022/03/29 13:19:12;;;;;;;59.53;55.33;;;;;;;13.65;100.00;101076.98;1940083;73;33066;-78
2022/03/29 13:24:56;;;;;;;57.17;53.00;;;;;;;13.37;100.00;101073.73;1928854;73;33476;-79
2022/03/29 13:30:41;;;;;;;62.33;58.07;;;;;;;13.36;100.00;101062.30;1922982;73;32976;-79
2022/03/29 13:36:27;;;;;;;62.30;57.80;;;;;;;13.72;100.00;101065.45;1939305;73;32965;-78
2022/03/29 13:42:13;;;;;;;60.90;56.67;;;;;;;13.58;100.00;101043.59;1939790;73;33564;-77
2022/03/29 13:47:58;;;;;;;57.80;53.40;;;;;;;13.68;100.00;101049.05;1932860;73;32965;-73
2022/03/29 13:53:43;;;;;;;59.93;55.47;;;;;;;13.88;100.00;101043.71;1922761;73;33001;-72
2022/03/29 13:59:29;;;;;;;65.77;60.97;;;;;;;13.74;100.00;101042.80;1939385;73;33060;-73
2022/03/29 14:05:14;;;;;;;58.83;54.47;;;;;;;13.69;100.00;101036.75;1940332;73;33037;-78
2022/03/29 14:11:00;;;;;;;60.70;55.70;;;;;;;13.65;100.00;101033.71;1938973;74;33076;-79
2022/03/29 14:16:45;;;;;;;58.57;53.73;;;;;;;13.86;100.00;101029.23;1929044;73;33487;-79
2022/03/29 14:22:32;;;;;;;62.93;57.83;;;;;;;13.81;100.00;101028.75;1923309;73;32989;-78
2022/03/29 14:28:17;;;;;;;63.40;58.60;;;;;;;13.70;100.00;101032.80;1939671;73;33553;-73
2022/03/29 14:34:03;;;;;;;65.20;60.30;;;;;;;13.51;100.00;101026.41;1931795;73;32971;-78
2022/03/29 14:39:47;;;;;;;62.10;57.27;;;;;;;13.42;100.00;101020.66;1916892;74;32980;-75
2022/03/29 14:45:32;;;;;;;62.27;57.60;;;;;;;13.00;100.00;101022.02;1928991;73;33118;-76
2022/03/29 14:51:16;;;;;;;61.10;56.30;;;;;;;12.82;100.00;101015.81;1911574;73;32906;-73
2022/03/29 14:57:00;;;;;;;64.33;59.13;;;;;;;13.08;100.00;100997.66;2041005;69;32818;-78
2022/03/29 15:02:46;;;;;;;60.47;55.83;;;;;;;13.12;100.00;100996.80;1923316;73;32930;-74
2022/03/29 15:08:31;;;;;;;65.50;59.90;;;;;;;12.76;100.00;100995.52;1911544;73;33000;-78
2022/03/29 15:14:15;;;;;;;63.60;58.83;;;;;;;12.98;100.00;100993.03;1940089;73;33030;-74
2022/03/29 15:20:00;;;;;;;62.90;58.00;;;;;;;13.06;100.00;100985.39;1929776;73;33021;-73
2022/03/29 15:25:45;;;;;;;65.60;60.40;;;;;;;12.99;100.00;100979.92;1939630;73;33551;-78
2022/03/29 15:31:30;;;;;;;66.10;60.90;;;;;;;12.97;100.00;100980.20;1928884;73;33522;-75
2022/03/29 15:37:16;;;;;;;65.33;60.10;;;;;;;13.00;100.00;100967.64;1916943;73;33088;-73
2022/03/29 15:43:02;;;;;;;65.43;60.13;;;;;;;12.95;100.00;100954.59;1928997;73;32984;-79
2022/03/29 15:48:47;;;;;;;64.53;59.20;;;;;;;12.95;100.00;100946.23;1932771;73;33462;-80
2022/03/29 15:54:32;;;;;;;67.70;62.03;;;;;;;13.05;100.00;100937.72;1940618;73;33094;-79
2022/03/29 16:00:18;;;;;;;66.03;60.57;;;;;;;12.83;100.00;100929.67;1922650;73;32981;-77
2022/03/29 16:06:02;;;;;;;68.00;62.50;;;;;;;12.87;100.00;100932.13;1933876;73;33534;-75
2022/03/29 16:11:47;;;;;;;68.40;62.83;;;;;;;12.83;100.00;100930.50;1934843;73;33042;-75
2022/03/29 16:17:31;;;;;;;70.17;64.67;;;;;;;12.75;100.00;100927.79;1939459;73;33163;-74
2022/03/29 16:23:15;;;;;;;69.13;63.53;;;;;;;12.56;100.00;100919.95;1922709;73;32999;-75
2022/03/29 16:29:02;;;;;;;72.07;66.20;;;;;;;12.79;100.00;100912.13;1918163;73;32994;-74
2022/03/29 16:34:47;;;;;;;71.77;65.97;;;;;;;12.78;100.00;100909.09;1923107;73;33040;-77
2022/03/29 16:40:35;;;;;;;73.37;67.33;;;;;;;12.73;100.00;100903.58;1928646;73;32963;-78
2022/03/29 16:46:18;;;;;;;73.40;67.43;;;;;;;12.82;100.00;100899.56;1922616;74;33073;-81
2022/03/29 16:52:02;;;;;;;77.80;71.37;;;;;;;12.71;100.00;100894.67;1922922;73;32975;-74
2022/03/29 16:57:48;;;;;;;80.37;73.73;;;;;;;12.49;100.00;100891.63;1906722;75;33562;-80
2022/03/29 17:03:34;;;;;;;76.27;69.83;;;;;;;12.40;100.00;100890.63;1940032;73;33047;-75
2022/03/29 17:09:19;;;;;;;77.50;71.20;;;;;;;12.54;100.00;100893.50;1917463;74;33038;-77
2022/03/29 17:15:04;;;;;;;76.77;70.40;;;;;;;12.56;100.00;100896.84;1923152;73;32975;-75
2022/03/29 17:20:49;;;;;;;78.37;71.83;;;;;;;12.33;100.00;100897.09;1939380;74;33056;-75
2022/03/29 17:26:34;;;;;;;77.87;71.10;;;;;;;12.31;100.00;100895.19;1911665;73;33037;-75
2022/03/29 17:32:18;;;;;;;81.40;75.23;;;;;;;12.22;100.00;100894.16;1928463;73;32934;-82
2022/03/29 17:38:03;;;;;;;80.93;74.33;;;;;;;12.19;100.00;100905.31;1912060;73;32990;-78
2022/03/29 17:43:47;;;;;;;83.20;77.03;;;;;;;12.24;100.00;100900.25;1934852;73;33482;-73
2022/03/29 17:49:33;;;;;;;83.30;76.80;;;;;;;12.22;100.00;100903.35;1928531;73;33019;-74
2022/03/29 17:55:18;;;;;;;81.57;74.97;;;;;;;12.19;100.00;100903.92;1923873;73;32989;-77
2022/03/29 18:01:03;;;;;;;84.10;77.30;;;;;;;12.14;100.00;100907.34;1928702;73;32923;-77
2022/03/29 18:06:48;;;;;;;83.47;76.87;;;;;;;12.15;100.00;100908.42;1940323;74;33091;-77
2022/03/29 18:12:34;;;;;;;84.63;78.13;;;;;;;11.96;100.00;100905.30;1939515;73;32986;-73
2022/03/29 18:18:19;;;;;;;86.17;79.90;;;;;;;12.03;100.00;100909.95;1928463;73;33103;-74
2022/03/29 18:24:04;;;;;;;82.70;76.40;;;;;;;11.99;100.00;100903.30;1929066;74;33058;-77
2022/03/29 18:29:48;;;;;;;84.90;78.67;;;;;;;12.02;100.00;100904.97;1917121;73;32980;-77
2022/03/29 18:35:32;;;;;;;84.50;77.97;;;;;;;11.95;100.00;100911.42;1939900;73;33049;-73
2022/03/29 18:41:17;;;;;;;84.80;78.30;;;;;;;11.89;100.00;100906.20;1929507;73;33001;-79
2022/03/29 18:47:02;;;;;;;85.50;78.90;;;;;;;11.91;100.00;100904.78;1917537;73;33041;-76
2022/03/29 18:52:47;;;;;;;81.43;75.13;;;;;;;11.81;100.00;100905.69;1934227;73;33598;-78
2022/03/29 18:58:32;;;;;;;83.47;77.27;;;;;;;11.82;100.00;100903.75;1928817;73;32932;-75
2022/03/29 19:04:18;;;;;;;84.37;78.00;;;;;;;11.69;100.00;100905.22;1929867;73;32969;-71
2022/03/29 19:10:02;;;;;;;86.53;79.83;;;;;;;11.66;100.00;100897.46;1911487;73;32984;-71
2022/03/29 19:15:46;;;;;;;89.70;82.97;;;;;;;11.65;100.00;100904.70;1934652;73;32903;-73
2022/03/29 19:21:30;;;;;;;90.20;82.97;;;;;;;11.65;100.00;100904.70;1928712;73;33001;-79
2022/03/29 19:27:16;;;;;;;88.17;81.63;;;;;;;11.55;100.00;100908.97;1933685;73;32987;-74
2022/03/29 19:33:04;;;;;;;87.83;80.93;;;;;;;11.47;100.00;100896.48;1934141;73;33120;-76
2022/03/29 19:39:33;;;;;;;93.23;86.40;;;;;;;11.40;100.00;100906.56;1940193;73;33082;-76
2022/03/29 19:45:18;;;;;;;89.30;82.57;;;;;;;11.41;100.00;100912.97;1939795;73;33467;-74
2022/03/29 19:51:03;;;;;;;87.03;80.40;;;;;;;11.38;100.00;100912.16;1928870;74;32970;-75
2022/03/29 19:56:47;;;;;;;90.60;83.60;;;;;;;11.28;100.00;100913.06;1885024;75;33007;-72
2022/03/29 20:02:32;;;;;;;88.10;81.17;;;;;;;11.29;100.00;100900.82;1939822;73;33573;-72
2022/03/29 20:08:16;;;;;;;90.37;82.97;;;;;;;11.24;100.00;100900.85;1922868;74;32975;-74
2022/03/29 20:14:01;;;;;;;94.33;86.67;;;;;;;11.17;100.00;100905.88;1911352;74;32926;-72
2022/03/29 20:19:49;;;;;;;95.70;87.83;;;;;;;11.04;100.00;100895.40;1934711;73;32922;-71
2022/03/29 20:25:31;;;;;;;96.90;88.93;;;;;;;10.94;100.00;100901.87;1923901;73;32934;-76
2022/03/29 20:31:16;;;;;;;96.67;88.27;;;;;;;10.89;100.00;100898.28;1928250;73;32941;-74
2022/03/29 20:37:01;;;;;;;95.43;86.80;;;;;;;10.81;100.00;100896.94;1934485;73;32999;-74
2022/03/29 20:42:47;;;;;;;96.17;87.73;;;;;;;10.79;100.00;100906.10;1922790;73;33044;-71
2022/03/29 20:48:35;;;;;;;98.23;89.97;;;;;;;10.77;100.00;100908.35;1928802;73;33505;-76
2022/03/29 20:54:19;;;;;;;98.50;90.10;;;;;;;10.71;100.00;100906.70;1911887;73;32917;-76
2022/03/29 21:00:03;;;;;;;98.60;89.60;;;;;;;10.64;100.00;100902.02;1939463;73;33062;-69
2022/03/29 21:05:48;;;;;;;96.47;87.93;;;;;;;10.54;100.00;100900.66;1934753;73;32933;-70
2022/03/29 21:11:33;;;;;;;96.30;87.63;;;;;;;10.47;100.00;100904.31;1917062;73;33047;-77
2022/03/29 21:17:17;;;;;;;98.77;89.47;;;;;;;10.35;100.00;100896.30;1928179;73;33615;-76
2022/03/29 21:23:22;;;;;;;100.00;90.83;;;;;;;10.19;100.00;100894.66;1939502;73;33200;-73
2022/03/29 21:29:07;;;;;;;98.97;89.50;;;;;;;10.06;100.00;100899.38;1922740;73;33468;-74
2022/03/29 21:34:52;;;;;;;99.43;90.47;;;;;;;10.17;100.00;100893.30;1939582;73;33461;-74
2022/03/29 21:40:39;;;;;;;104.63;95.53;;;;;;;10.11;100.00;100897.98;1938773;73;33194;-76
2022/03/29 21:46:23;;;;;;;100.87;91.67;;;;;;;10.00;100.00;100904.68;1928267;73;33105;-74
2022/03/29 21:52:09;;;;;;;98.20;89.17;;;;;;;9.92;100.00;100908.03;1923095;73;33163;-72
2022/03/29 21:57:55;;;;;;;101.43;92.67;;;;;;;9.93;100.00;100904.95;1917882;73;33558;-71
2022/03/29 22:03:53;;;;;;;100.43;91.03;;;;;;;9.93;100.00;100902.73;1922838;73;33004;-76
2022/03/29 22:09:37;;;;;;;99.37;90.20;;;;;;;9.78;100.00;100899.44;1939515;73;33104;-78
2022/03/29 22:15:23;;;;;;;102.20;92.90;;;;;;;9.83;100.00;100895.27;1917190;73;32944;-77
2022/03/29 22:21:07;;;;;;;102.17;92.97;;;;;;;9.72;100.00;100895.53;1934478;73;33561;-78
2022/03/29 22:26:52;;;;;;;101.33;92.10;;;;;;;9.71;100.00;100889.73;1939433;73;33002;-77
2022/03/29 22:32:38;;;;;;;105.97;96.30;;;;;;;9.73;100.00;100892.50;1940274;73;33122;-77
2022/03/29 22:38:24;;;;;;;101.10;91.97;;;;;;;9.76;100.00;100892.48;1934184;74;33221;-77
2022/03/29 22:44:09;;;;;;;99.53;90.30;;;;;;;9.73;100.00;100899.43;1912184;73;33056;-76
2022/03/29 22:49:53;;;;;;;104.27;94.93;;;;;;;9.82;100.00;100885.83;1940634;74;32997;-76
2022/03/29 22:55:38;;;;;;;100.93;91.23;;;;;;;9.67;100.00;100885.28;1912628;73;33096;-77
2022/03/29 23:01:22;;;;;;;104.60;95.07;;;;;;;9.76;100.00;100889.70;1933988;73;32975;-78
2022/03/29 23:07:07;;;;;;;101.87;92.57;;;;;;;9.82;100.00;100886.67;1934190;73;33042;-77
2022/03/29 23:12:51;;;;;;;102.23;93.07;;;;;;;9.70;100.00;100884.75;1940218;74;33130;-77
2022/03/29 23:18:35;;;;;;;105.23;95.77;;;;;;;9.72;100.00;100870.58;1939702;73;33090;-77
2022/03/29 23:24:20;;;;;;;107.20;97.57;;;;;;;9.67;100.00;100871.41;1923046;74;32915;-77
2022/03/29 23:30:05;;;;;;;106.23;97.00;;;;;;;9.68;100.00;100864.77;1928392;73;33475;-77
2022/03/29 23:35:49;;;;;;;107.30;97.90;;;;;;;9.68;100.00;100870.31;1917481;73;32920;-77
2022/03/29 23:41:34;;;;;;;107.13;97.70;;;;;;;9.60;100.00;100865.33;1922872;73;33511;-77
2022/03/29 23:47:19;;;;;;;109.57;99.73;;;;;;;9.66;100.00;100868.39;1922852;73;33077;-77
2022/03/29 23:53:03;;;;;;;109.47;99.87;;;;;;;9.67;100.00;100876.16;1916866;73;33159;-77
2022/03/29 23:58:48;;;;;;;107.40;97.23;;;;;;;9.50;100.00;100874.47;1922861;73;33023;-76
